createdAt,value
2019-05-25T00:01:18.548Z,3.33
2019-05-25T00:04:25.103Z,3.45
2019-05-25T00:07:30.779Z,3.20
2019-05-25T00:10:36.299Z,3.40
2019-05-25T00:13:43.134Z,3.15
2019-05-25T00:16:48.856Z,3.10
2019-05-25T00:19:54.612Z,3.10
2019-05-25T00:23:00.365Z,3.00
2019-05-25T00:26:06.128Z,3.30
2019-05-25T00:29:12.924Z,3.05
2019-05-25T00:32:18.745Z,3.47
2019-05-25T00:35:26.439Z,3.50
2019-05-25T00:38:32.214Z,3.27
2019-05-25T00:41:37.964Z,3.20
2019-05-25T00:44:43.656Z,3.58
2019-05-25T00:47:49.306Z,3.40
2019-05-25T00:50:54.908Z,3.50
2019-05-25T00:54:00.589Z,2.90
2019-05-25T00:57:06.244Z,3.35
2019-05-25T01:00:14.172Z,3.72
2019-05-25T01:03:20.947Z,3.50
2019-05-25T01:06:26.775Z,3.40
2019-05-25T01:09:32.431Z,3.40
2019-05-25T01:12:38.081Z,3.27
2019-05-25T01:15:44.738Z,3.75
2019-05-25T01:18:50.432Z,3.70
2019-05-25T01:21:56.060Z,3.20
2019-05-25T01:25:01.764Z,3.45
2019-05-25T01:28:07.471Z,3.37
2019-05-25T01:31:13.144Z,3.17
2019-05-25T01:34:18.781Z,3.60
2019-05-25T01:37:24.431Z,3.45
2019-05-25T01:40:31.696Z,2.90
2019-05-25T01:43:37.448Z,3.20
2019-05-25T01:46:43.361Z,2.98
2019-05-25T01:49:50.291Z,5.00
2019-05-25T01:52:55.959Z,3.40
2019-05-25T01:56:01.655Z,3.87
2019-05-25T01:59:08.303Z,4.25
2019-05-25T02:02:13.975Z,4.10
2019-05-25T02:05:19.842Z,4.05
2019-05-25T02:08:25.466Z,3.87
2019-05-25T02:11:31.167Z,3.62
2019-05-25T02:14:36.808Z,3.42
2019-05-25T02:17:42.522Z,3.45
2019-05-25T02:20:48.207Z,3.55
2019-05-25T02:23:55.044Z,3.77
2019-05-25T02:27:00.919Z,3.35
2019-05-25T02:30:07.236Z,3.37
2019-05-25T02:33:12.740Z,3.40
2019-05-25T02:36:20.769Z,2.92
2019-05-25T02:39:26.811Z,3.58
2019-05-25T02:42:33.564Z,3.15
2019-05-25T02:45:39.268Z,2.85
2019-05-25T02:48:44.866Z,3.12
2019-05-25T02:51:50.594Z,3.08
2019-05-25T02:54:56.440Z,2.90
2019-05-25T02:58:02.266Z,3.35
2019-05-25T03:01:07.932Z,2.60
2019-05-25T03:04:13.764Z,2.83
2019-05-25T03:07:20.552Z,2.67
2019-05-25T03:10:26.335Z,2.90
2019-05-25T03:13:33.355Z,2.87
2019-05-25T03:16:39.024Z,3.02
2019-05-25T03:19:44.699Z,2.87
2019-05-25T03:22:50.339Z,2.83
2019-05-25T03:25:56.001Z,2.72
2019-05-25T03:29:01.639Z,2.83
2019-05-25T03:32:07.423Z,2.92
2019-05-25T03:35:13.268Z,2.80
2019-05-25T03:38:18.928Z,2.65
2019-05-25T03:41:26.377Z,2.70
2019-05-25T03:44:33.784Z,2.70
2019-05-25T03:47:39.439Z,2.92
2019-05-25T03:50:45.126Z,2.72
2019-05-25T03:53:50.979Z,2.85
2019-05-25T03:56:56.728Z,2.47
2019-05-25T04:00:24.813Z,2.40
2019-05-25T04:03:30.668Z,2.65
2019-05-25T04:06:36.527Z,2.60
2019-05-25T04:09:44.520Z,2.60
2019-05-25T04:12:50.156Z,2.60
2019-05-25T04:15:55.858Z,2.30
2019-05-25T04:19:01.485Z,2.62
2019-05-25T04:22:07.155Z,2.50
2019-05-25T04:25:12.892Z,2.10
2019-05-25T04:28:19.652Z,2.27
2019-05-25T04:31:25.340Z,2.22
2019-05-25T04:34:30.971Z,2.52
2019-05-25T04:37:38.267Z,2.12
2019-05-25T04:40:43.915Z,2.10
2019-05-25T04:43:51.196Z,2.17
2019-05-25T04:46:56.951Z,1.92
2019-05-25T04:50:03.861Z,2.08
2019-05-25T04:53:09.635Z,1.90
2019-05-25T04:56:15.236Z,2.00
2019-05-25T04:59:23.854Z,2.00
2019-05-25T05:02:29.555Z,1.70
2019-05-25T05:05:39.566Z,1.70
2019-05-25T05:08:45.355Z,1.90
2019-05-25T05:11:51.232Z,1.70
2019-05-25T05:14:56.854Z,1.60
2019-05-25T05:18:02.532Z,1.82
2019-05-25T05:21:08.156Z,1.60
2019-05-25T05:24:15.221Z,1.77
2019-05-25T05:27:20.907Z,1.55
2019-05-25T05:30:33.803Z,1.60
2019-05-25T05:33:39.515Z,1.70
2019-05-25T05:36:45.637Z,1.50
2019-05-25T05:39:52.878Z,1.55
2019-05-25T05:43:00.453Z,1.70
2019-05-25T05:46:07.961Z,1.60
2019-05-25T05:49:14.183Z,1.70
2019-05-25T05:52:23.019Z,1.77
2019-05-25T05:55:33.018Z,1.60
2019-05-25T05:58:40.460Z,1.25
2019-05-25T06:01:46.088Z,1.30
2019-05-25T06:04:51.772Z,1.40
2019-05-25T06:07:57.455Z,1.50
2019-05-25T06:11:03.187Z,1.30
2019-05-25T06:14:08.839Z,1.40
2019-05-25T06:17:14.546Z,1.22
2019-05-25T06:20:20.243Z,1.60
2019-05-25T06:23:26.306Z,1.40
2019-05-25T06:26:31.930Z,1.42
2019-05-25T06:29:38.458Z,1.10
2019-05-25T06:32:44.108Z,1.15
2019-05-25T06:35:49.733Z,1.30
2019-05-25T06:38:55.384Z,1.30
2019-05-25T06:42:01.241Z,1.47
2019-05-25T06:45:07.511Z,1.20
2019-05-25T06:48:13.164Z,1.17
2019-05-25T06:51:18.810Z,1.27
2019-05-25T06:54:24.447Z,1.37
2019-05-25T06:57:42.025Z,1.50
2019-05-25T07:00:37.515Z,1.22
2019-05-25T07:03:44.188Z,1.17
2019-05-25T07:06:49.839Z,1.57
2019-05-25T07:09:55.495Z,1.10
2019-05-25T07:13:01.159Z,1.20
2019-05-25T07:16:06.908Z,1.20
2019-05-25T07:19:12.534Z,1.30
2019-05-25T07:22:18.284Z,1.00
2019-05-25T07:25:24.395Z,1.00
2019-05-25T07:28:30.063Z,1.30
2019-05-25T07:31:35.659Z,1.00
2019-05-25T07:34:41.396Z,1.15
2019-05-25T07:37:47.787Z,1.30
2019-05-25T07:40:53.446Z,1.02
2019-05-25T07:43:59.114Z,1.00
2019-05-25T07:47:04.786Z,1.10
2019-05-25T07:50:10.797Z,1.10
2019-05-25T07:53:16.448Z,1.10
2019-05-25T07:56:22.104Z,1.20
2019-05-25T07:59:27.835Z,1.20
2019-05-25T08:02:34.434Z,1.30
2019-05-25T08:05:40.111Z,1.10
2019-05-25T08:08:45.765Z,1.12
2019-05-25T08:11:51.391Z,1.05
2019-05-25T08:14:57.087Z,0.95
2019-05-25T08:18:02.747Z,1.00
2019-05-25T08:21:08.523Z,1.10
2019-05-25T08:24:14.212Z,1.12
2019-05-25T08:27:22.481Z,1.07
2019-05-25T08:30:27.608Z,1.30
2019-05-25T08:33:33.373Z,1.30
2019-05-25T08:36:38.991Z,1.05
2019-05-25T08:39:44.787Z,1.00
2019-05-25T08:42:51.276Z,0.90
2019-05-25T08:45:57.016Z,1.12
2019-05-25T08:49:02.637Z,0.98
2019-05-25T08:52:08.255Z,1.10
2019-05-25T08:55:14.975Z,1.00
2019-05-25T08:58:20.730Z,1.05
2019-05-25T09:01:26.395Z,1.10
2019-05-25T09:04:41.848Z,0.90
2019-05-25T09:07:47.503Z,1.10
2019-05-25T09:10:53.190Z,1.00
2019-05-25T09:13:58.808Z,0.90
2019-05-25T09:17:04.465Z,1.10
2019-05-25T09:20:10.227Z,0.90
2019-05-25T09:23:17.422Z,0.98
2019-05-25T09:26:23.068Z,1.12
2019-05-25T09:29:28.711Z,1.02
2019-05-25T09:32:34.375Z,1.10
2019-05-25T09:35:40.132Z,1.00
2019-05-25T09:38:46.051Z,1.00
2019-05-25T09:41:51.738Z,1.02
2019-05-25T09:44:57.383Z,0.93
2019-05-25T09:48:03.088Z,1.05
2019-05-25T09:51:15.414Z,1.00
2019-05-25T09:54:17.792Z,1.05
2019-05-25T09:57:23.483Z,1.10
2019-05-25T10:00:29.548Z,1.00
2019-05-25T10:03:35.279Z,0.93
2019-05-25T10:06:40.984Z,1.30
2019-05-25T10:09:47.602Z,1.00
2019-05-25T10:12:53.260Z,0.90
2019-05-25T10:15:58.927Z,1.10
2019-05-25T10:19:05.617Z,1.00
2019-05-25T10:22:11.266Z,1.10
2019-05-25T10:25:17.611Z,0.98
2019-05-25T10:28:23.259Z,1.10
2019-05-25T10:31:28.938Z,0.90
2019-05-25T10:34:34.592Z,0.90
2019-05-25T10:37:41.256Z,0.90
2019-05-25T10:40:47.119Z,1.00
2019-05-25T10:43:52.879Z,1.05
2019-05-25T10:46:58.637Z,1.00
2019-05-25T10:50:04.702Z,1.12
2019-05-25T10:53:10.351Z,0.90
2019-05-25T10:56:17.038Z,1.00
2019-05-25T10:59:22.787Z,1.00
2019-05-25T11:02:28.539Z,1.00
2019-05-25T11:05:35.187Z,1.17
2019-05-25T11:08:40.838Z,0.82
2019-05-25T11:11:47.403Z,1.00
2019-05-25T11:14:53.028Z,1.00
2019-05-25T11:17:58.584Z,1.10
2019-05-25T11:21:04.203Z,1.10
2019-05-25T11:24:09.868Z,1.00
2019-05-25T11:27:15.596Z,1.00
2019-05-25T11:30:23.415Z,1.07
2019-05-25T11:33:29.131Z,1.00
2019-05-25T11:36:36.548Z,0.90
2019-05-25T11:39:42.247Z,1.02
2019-05-25T11:42:47.902Z,1.00
2019-05-25T11:45:53.519Z,1.20
2019-05-25T11:48:59.210Z,0.90
2019-05-25T11:52:04.898Z,0.95
2019-05-25T11:55:10.925Z,0.80
2019-05-25T11:58:16.709Z,0.90
2019-05-25T12:01:22.329Z,1.22
2019-05-25T12:04:27.956Z,1.10
2019-05-25T12:07:33.664Z,1.07
2019-05-25T12:10:39.283Z,0.82
2019-05-25T12:13:45.983Z,1.00
2019-05-25T12:16:51.719Z,1.10
2019-05-25T12:19:57.385Z,0.80
2019-05-25T12:23:03.488Z,0.82
2019-05-25T12:26:09.392Z,1.00
2019-05-25T12:29:15.086Z,1.00
2019-05-25T12:32:20.724Z,1.10
2019-05-25T12:35:26.350Z,1.00
2019-05-25T12:38:32.041Z,1.02
2019-05-25T12:41:37.656Z,0.93
2019-05-25T12:44:43.288Z,0.93
2019-05-25T12:47:49.916Z,0.90
2019-05-25T12:50:55.611Z,0.90
2019-05-25T12:54:01.323Z,0.90
2019-05-25T12:57:06.940Z,1.10
2019-05-25T13:00:16.099Z,1.05
2019-05-25T13:03:20.355Z,0.80
2019-05-25T13:06:26.044Z,1.10
2019-05-25T13:09:31.699Z,1.00
2019-05-25T13:12:37.331Z,0.90
2019-05-25T13:15:43.074Z,1.00
2019-05-25T13:18:48.765Z,1.00
2019-05-25T13:21:54.416Z,0.82
2019-05-25T13:25:00.103Z,1.02
2019-05-25T13:28:05.731Z,1.32
2019-05-25T13:31:12.331Z,0.98
2019-05-25T13:34:18.072Z,0.90
2019-05-25T13:37:23.732Z,1.00
2019-05-25T13:40:29.307Z,0.80
2019-05-25T13:43:35.011Z,0.98
2019-05-25T13:46:40.676Z,0.90
2019-05-25T13:49:46.289Z,0.90
2019-05-25T13:52:51.968Z,1.10
2019-05-25T13:55:57.632Z,1.10
2019-05-25T13:59:03.304Z,0.80
2019-05-25T14:02:08.999Z,0.95
2019-05-25T14:05:15.472Z,1.02
2019-05-25T14:08:21.188Z,0.80
2019-05-25T14:11:26.792Z,1.17
2019-05-25T14:14:32.459Z,0.90
2019-05-25T14:17:38.118Z,0.82
2019-05-25T14:20:44.767Z,1.50
2019-05-25T14:23:51.500Z,0.75
2019-05-25T14:26:57.121Z,0.80
2019-05-25T14:30:02.751Z,1.00
2019-05-25T14:33:11.156Z,1.00
2019-05-25T14:36:16.847Z,0.90
2019-05-25T14:39:23.519Z,0.90
2019-05-25T14:42:29.172Z,0.85
2019-05-25T14:45:35.012Z,0.85
2019-05-25T14:48:40.764Z,0.78
2019-05-25T14:51:46.439Z,0.98
2019-05-25T14:54:52.151Z,0.80
2019-05-25T14:57:57.948Z,0.80
2019-05-25T15:01:03.571Z,0.90
2019-05-25T15:04:09.403Z,0.93
2019-05-25T15:07:15.163Z,1.10
2019-05-25T15:10:20.739Z,0.90
2019-05-25T15:13:26.512Z,0.90
2019-05-25T15:16:32.179Z,1.10
2019-05-25T15:19:37.879Z,0.90
2019-05-25T15:22:46.828Z,0.90
2019-05-25T15:25:52.000Z,1.07
2019-05-25T15:28:57.653Z,0.90
2019-05-25T15:32:18.744Z,1.10
2019-05-25T15:35:10.732Z,1.00
2019-05-25T15:38:17.372Z,0.80
2019-05-25T15:41:24.733Z,1.00
2019-05-25T15:44:30.415Z,1.00
2019-05-25T15:47:36.075Z,1.10
2019-05-25T15:50:41.731Z,1.10
2019-05-25T15:53:47.455Z,1.12
2019-05-25T15:56:53.220Z,1.02
2019-05-25T15:59:59.033Z,0.93
2019-05-25T16:03:04.643Z,0.72
2019-05-25T16:06:10.437Z,1.00
2019-05-25T16:09:16.123Z,0.80
2019-05-25T16:12:21.960Z,0.85
2019-05-25T16:15:28.834Z,1.10
2019-05-25T16:18:34.439Z,1.00
2019-05-25T16:21:40.128Z,1.00
2019-05-25T16:24:45.827Z,0.93
2019-05-25T16:27:51.506Z,1.00
2019-05-25T16:30:57.187Z,0.90
2019-05-25T16:34:02.812Z,1.05
2019-05-25T16:37:08.550Z,1.00
2019-05-25T16:40:14.595Z,1.00
2019-05-25T16:43:20.251Z,0.80
2019-05-25T16:46:25.977Z,0.90
2019-05-25T16:49:31.585Z,0.80
2019-05-25T16:52:37.276Z,1.00
2019-05-25T16:55:42.880Z,1.00
2019-05-25T16:58:48.620Z,0.80
2019-05-25T17:01:54.307Z,1.00
2019-05-25T17:04:59.950Z,0.98
2019-05-25T17:08:06.650Z,1.10
2019-05-25T17:11:12.287Z,1.10
2019-05-25T17:14:17.933Z,0.98
2019-05-25T17:17:24.640Z,0.90
2019-05-25T17:20:30.263Z,1.10
2019-05-25T17:23:35.918Z,1.10
2019-05-25T17:26:41.679Z,1.00
2019-05-25T17:29:47.323Z,1.10
2019-05-25T17:32:53.389Z,1.20
2019-05-25T17:35:59.011Z,1.10
2019-05-25T17:39:05.923Z,1.12
2019-05-25T17:42:11.649Z,0.90
2019-05-25T17:45:17.461Z,1.10
2019-05-25T17:48:23.060Z,1.10
2019-05-25T17:51:28.736Z,0.98
2019-05-25T17:54:34.371Z,1.05
2019-05-25T17:57:40.044Z,1.10
2019-05-25T18:00:49.673Z,1.20
2019-05-25T18:04:06.680Z,1.30
2019-05-25T18:07:03.727Z,1.10
2019-05-25T18:10:09.699Z,1.07
2019-05-25T18:13:15.359Z,1.10
2019-05-25T18:16:21.027Z,0.98
2019-05-25T18:19:26.679Z,0.98
2019-05-25T18:22:32.475Z,1.02
2019-05-25T18:25:38.067Z,1.20
2019-05-25T18:28:43.760Z,1.07
2019-05-25T18:31:49.592Z,1.02
2019-05-25T18:34:55.247Z,1.17
2019-05-25T18:38:02.066Z,1.07
2019-05-25T18:41:07.783Z,1.10
2019-05-25T18:44:13.411Z,1.02
2019-05-25T18:47:19.060Z,1.00
2019-05-25T18:50:25.151Z,1.20
2019-05-25T18:53:30.783Z,1.00
2019-05-25T18:56:36.664Z,1.20
2019-05-25T18:59:42.315Z,1.50
2019-05-25T19:02:49.684Z,1.37
2019-05-25T19:05:55.362Z,1.37
2019-05-25T19:09:01.023Z,1.65
2019-05-25T19:12:08.236Z,1.87
2019-05-25T19:15:14.031Z,2.75
2019-05-25T19:18:19.789Z,3.15
2019-05-25T19:21:25.466Z,2.50
2019-05-25T19:24:31.143Z,1.70
2019-05-25T19:27:36.875Z,1.90
2019-05-25T19:30:42.736Z,1.70
2019-05-25T19:33:48.402Z,1.85
2019-05-25T19:36:54.038Z,1.87
2019-05-25T19:39:59.800Z,2.02
2019-05-25T19:43:05.752Z,1.75
2019-05-25T19:46:11.448Z,2.00
2019-05-25T19:49:17.131Z,1.87
2019-05-25T19:52:22.855Z,1.90
2019-05-25T19:55:28.512Z,1.70
2019-05-25T19:58:34.091Z,1.95
2019-05-25T20:01:39.919Z,1.90
2019-05-25T20:04:46.627Z,1.80
2019-05-25T20:07:52.351Z,1.90
2019-05-25T20:10:59.061Z,2.30
2019-05-25T20:14:04.876Z,2.10
2019-05-25T20:17:10.499Z,2.08
2019-05-25T20:20:17.101Z,2.05
2019-05-25T20:23:22.719Z,1.70
2019-05-25T20:26:28.419Z,2.02
2019-05-25T20:29:34.099Z,1.92
2019-05-25T20:32:39.930Z,2.10
2019-05-25T20:35:45.647Z,2.00
2019-05-25T20:38:51.394Z,1.98
2019-05-25T20:41:57.175Z,2.10
2019-05-25T20:45:42.575Z,2.17
2019-05-25T20:48:48.302Z,2.17
2019-05-25T20:51:54.050Z,2.02
2019-05-25T20:54:59.775Z,2.33
2019-05-25T20:58:05.863Z,2.40
2019-05-25T21:01:11.525Z,2.05
2019-05-25T21:04:17.347Z,1.85
2019-05-25T21:07:23.127Z,2.30
2019-05-25T21:10:30.083Z,2.00
2019-05-25T21:13:35.731Z,2.27
2019-05-25T21:16:41.418Z,2.20
2019-05-25T21:19:47.171Z,2.10
2019-05-25T21:22:53.962Z,2.30
2019-05-25T21:25:59.608Z,2.20
2019-05-25T21:29:05.331Z,2.00
2019-05-25T21:32:11.116Z,2.27
2019-05-25T21:35:16.917Z,2.00
2019-05-25T21:38:22.637Z,2.00
2019-05-25T21:41:28.288Z,2.20
2019-05-25T21:44:33.931Z,2.17
2019-05-25T21:47:39.795Z,2.40
2019-05-25T21:50:46.447Z,2.40
2019-05-25T21:53:52.235Z,2.20
2019-05-25T21:56:57.983Z,2.20
2019-05-25T22:00:04.721Z,2.05
2019-05-25T22:03:10.511Z,2.10
2019-05-25T22:06:24.390Z,2.35
2019-05-25T22:09:23.759Z,2.27
2019-05-25T22:12:29.616Z,2.00
2019-05-25T22:15:35.547Z,2.17
2019-05-25T22:18:42.890Z,2.60
2019-05-25T22:21:48.594Z,1.90
2019-05-25T22:24:54.379Z,2.05
2019-05-25T22:28:00.033Z,2.12
2019-05-25T22:31:05.665Z,2.58
2019-05-25T22:34:12.584Z,2.10
2019-05-25T22:37:18.215Z,2.00
2019-05-25T22:40:23.983Z,2.17
2019-05-25T22:43:31.395Z,1.90
2019-05-25T22:46:37.330Z,2.22
2019-05-25T22:49:43.327Z,2.47
2019-05-25T22:52:48.944Z,2.17
2019-05-25T22:55:55.107Z,2.27
2019-05-25T22:59:01.208Z,2.20
2019-05-25T23:02:07.139Z,2.20
2019-05-25T23:05:13.124Z,2.60
2019-05-25T23:08:18.945Z,2.50
2019-05-25T23:11:24.739Z,2.30
2019-05-25T23:14:30.479Z,2.10
2019-05-25T23:17:36.214Z,2.77
2019-05-25T23:20:41.863Z,2.40
2019-05-25T23:23:47.583Z,1.98
2019-05-25T23:26:54.275Z,2.25
2019-05-25T23:30:00.016Z,2.30
2019-05-25T23:33:05.775Z,1.87
2019-05-25T23:36:11.559Z,2.30
2019-05-25T23:39:17.182Z,2.20
2019-05-25T23:42:22.846Z,2.37
2019-05-25T23:45:28.589Z,2.30
2019-05-25T23:48:34.242Z,2.10
2019-05-25T23:51:39.974Z,2.20
2019-05-25T23:54:45.524Z,2.10
2019-05-25T23:57:52.920Z,2.02
